Time;durP1;ratioP1;P1;durP2;ratioP2;P2;SDS_P1;SDS_P2;PMS_P1;PMS_P2;Temp;Humidity;BMP_temperature;BMP_pressure;BME280_temperature;BME280_humidity;BME280_pressure;Samples;Min_cycle;Max_cycle;Signal;HPM_P1;HPM_P2
2022/08/07 00:00:36;;;;;;;1.95;0.80;;;;;;;20.31;36.88;101219.56;4162907;28;20129;-64
2022/08/07 00:02:42;;;;;;;2.28;0.90;;;;;;;20.38;37.11;101222.97;4157674;28;20060;-64
2022/08/07 00:04:46;;;;;;;2.63;1.13;;;;;;;20.31;37.21;101223.97;4189732;28;20032;-64
2022/08/07 00:06:49;;;;;;;4.20;1.00;;;;;;;20.34;36.63;101229.19;4194847;28;20048;-64
2022/08/07 00:08:54;;;;;;;5.63;0.88;;;;;;;20.26;37.22;101228.44;4157678;28;20096;-65
2022/08/07 00:10:58;;;;;;;3.40;0.88;;;;;;;20.18;37.29;101216.22;4174488;28;20066;-64
2022/08/07 00:13:02;;;;;;;3.75;0.88;;;;;;;20.18;37.34;101224.16;4156246;28;20034;-65
2022/08/07 00:15:25;;;;;;;3.47;1.35;;;;;;;20.07;37.13;101225.19;4161822;28;20088;-64
2022/08/07 00:17:40;;;;;;;4.00;1.25;;;;;;;19.93;38.03;101223.59;4158234;28;20376;-64
2022/08/07 00:19:44;;;;;;;2.72;0.85;;;;;;;20.04;37.51;101223.44;4164331;28;20045;-65
2022/08/07 00:22:05;;;;;;;1.45;0.80;;;;;;;20.08;37.47;101232.19;4160320;28;20414;-65
2022/08/07 00:24:09;;;;;;;2.22;0.68;;;;;;;20.15;37.13;101226.84;4164873;28;20049;-65
2022/08/07 00:26:13;;;;;;;2.53;0.90;;;;;;;20.15;37.19;101213.63;4160265;28;20034;-65
2022/08/07 00:28:37;;;;;;;2.05;1.13;;;;;;;20.05;37.29;101217.28;4154850;28;20346;-65
2022/08/07 00:30:48;;;;;;;2.25;1.10;;;;;;;20.02;37.50;101219.97;4144428;28;20077;-64
2022/08/07 00:32:51;;;;;;;1.92;1.00;;;;;;;20.09;37.60;101212.81;4179089;28;20045;-65
2022/08/07 00:34:54;;;;;;;4.20;0.80;;;;;;;20.08;37.31;101217.25;4163578;28;20131;-65
2022/08/07 00:36:57;;;;;;;1.48;0.93;;;;;;;20.08;37.15;101214.59;4165192;28;20045;-64
2022/08/07 00:39:01;;;;;;;4.00;0.90;;;;;;;19.99;37.09;101212.06;4194831;28;20036;-64
2022/08/07 00:41:05;;;;;;;2.20;1.00;;;;;;;20.06;36.99;101219.00;4163459;28;20033;-65
2022/08/07 00:43:17;;;;;;;3.30;1.00;;;;;;;19.94;37.49;101213.91;4159359;28;20124;-64
2022/08/07 00:45:41;;;;;;;0.98;0.73;;;;;;;19.94;37.33;101213.91;4147200;28;20052;-65
2022/08/07 00:47:48;;;;;;;3.95;0.85;;;;;;;19.93;37.47;101214.78;4163790;28;20045;-64
2022/08/07 00:50:11;;;;;;;3.90;1.13;;;;;;;19.79;37.37;101207.91;4161615;28;20036;-64
2022/08/07 00:52:34;;;;;;;1.85;0.75;;;;;;;19.70;37.70;101202.72;4160983;28;20452;-64
2022/08/07 00:54:38;;;;;;;1.13;0.60;;;;;;;19.64;37.65;101205.41;4164176;28;20038;-64
2022/08/07 00:56:43;;;;;;;2.00;0.80;;;;;;;19.65;38.20;101200.13;4165808;28;20069;-64
2022/08/07 00:59:11;;;;;;;1.73;0.60;;;;;;;19.69;37.75;101212.38;4162349;28;20454;-64
2022/08/07 01:01:36;;;;;;;2.28;0.80;;;;;;;19.58;38.37;101205.50;4161016;28;20629;-64
2022/08/07 01:03:47;;;;;;;3.25;0.80;;;;;;;19.56;38.28;101199.38;4162894;28;20045;-64
2022/08/07 01:06:02;;;;;;;3.72;0.90;;;;;;;19.60;38.15;101204.59;4164459;28;20491;-64
2022/08/07 01:08:05;;;;;;;1.80;0.75;;;;;;;19.58;38.45;101200.22;4163060;28;20488;-64
2022/08/07 01:10:11;;;;;;;0.82;0.60;;;;;;;19.58;38.58;101206.38;4161410;28;20045;-64
2022/08/07 01:12:15;;;;;;;1.70;0.98;;;;;;;19.59;38.67;101207.25;4163834;28;20049;-64
2022/08/07 01:14:34;;;;;;;1.17;0.82;;;;;;;19.61;38.43;101205.44;4163449;28;20495;-64
2022/08/07 01:16:39;;;;;;;3.15;1.00;;;;;;;19.64;38.58;101201.03;4174812;28;20068;-65
2022/08/07 01:18:48;;;;;;;2.05;0.77;;;;;;;19.58;38.31;101201.09;4159881;28;20095;-64
2022/08/07 01:20:58;;;;;;;2.63;0.90;;;;;;;19.63;38.69;101203.69;4163439;28;20041;-64
2022/08/07 01:23:06;;;;;;;1.75;1.00;;;;;;;19.54;39.04;101205.53;4162253;28;20049;-65
2022/08/07 01:25:16;;;;;;;1.52;0.75;;;;;;;19.48;38.47;101205.59;4164822;28;20495;-64
2022/08/07 01:27:39;;;;;;;4.10;1.02;;;;;;;19.36;39.02;101208.34;4164195;28;20442;-64
2022/08/07 01:29:54;;;;;;;2.30;0.80;;;;;;;19.27;39.33;101206.69;4147257;28;20042;-64
2022/08/07 01:31:57;;;;;;;4.75;0.80;;;;;;;19.25;39.18;101210.25;4161963;28;20083;-64
2022/08/07 01:34:04;;;;;;;2.38;0.93;;;;;;;19.31;39.04;101208.41;4178494;28;20045;-64
2022/08/07 01:36:11;;;;;;;3.50;0.98;;;;;;;19.29;39.37;101209.28;4162104;28;20034;-64
2022/08/07 01:38:21;;;;;;;4.53;1.38;;;;;;;19.25;39.26;101207.59;4170197;28;20449;-64
2022/08/07 01:40:31;;;;;;;2.78;1.38;;;;;;;19.20;39.38;101215.53;4161486;28;20514;-64
2022/08/07 01:42:36;;;;;;;2.63;1.02;;;;;;;19.18;39.37;101215.56;4161727;28;20407;-64
2022/08/07 01:44:59;;;;;;;2.55;0.95;;;;;;;19.24;39.62;101211.13;4161157;28;20431;-65
2022/08/07 01:47:03;;;;;;;2.17;0.80;;;;;;;19.24;39.62;101213.75;4156411;28;20049;-64
2022/08/07 01:49:26;;;;;;;3.95;1.17;;;;;;;19.10;40.38;101208.59;4192253;28;20119;-65
2022/08/07 01:51:36;;;;;;;1.15;0.75;;;;;;;18.99;40.51;101216.63;4160429;28;20047;-64
2022/08/07 01:54:03;;;;;;;4.10;1.10;;;;;;;19.03;40.65;101213.06;4176670;28;20124;-64
2022/08/07 01:56:19;;;;;;;3.90;1.15;;;;;;;18.95;40.45;101206.97;4144505;28;20068;-64
2022/08/07 01:58:24;;;;;;;2.72;0.88;;;;;;;18.97;40.86;101203.44;4174751;28;20041;-64
2022/08/07 02:00:32;;;;;;;2.22;0.90;;;;;;;18.91;41.07;101202.63;4179512;28;20029;-64
2022/08/07 02:02:44;;;;;;;2.58;1.20;;;;;;;18.93;40.76;101198.22;4157232;28;20045;-64
2022/08/07 02:05:12;;;;;;;23.45;8.23;;;;;;;18.90;41.04;101200.91;4178898;28;20041;-64
2022/08/07 02:07:39;;;;;;;7.45;2.05;;;;;;;18.95;40.81;101197.34;4153664;28;20095;-65
2022/08/07 02:10:00;;;;;;;10.75;3.90;;;;;;;18.94;41.00;101202.59;4161876;28;20068;-65
2022/08/07 02:12:16;;;;;;;21.40;6.78;;;;;;;18.93;40.76;101196.47;4156854;28;20041;-64
2022/08/07 02:14:29;;;;;;;8.80;3.50;;;;;;;18.92;40.66;101199.09;4175929;28;20534;-65
2022/08/07 02:16:44;;;;;;;4.43;1.27;;;;;;;18.86;40.67;101197.41;4146603;28;20057;-64
2022/08/07 02:18:47;;;;;;;2.05;1.00;;;;;;;18.87;41.19;101199.16;4161096;28;20132;-64
2022/08/07 02:20:56;;;;;;;4.38;1.25;;;;;;;18.84;41.17;101192.09;4159841;28;20031;-64
2022/08/07 02:23:02;;;;;;;5.68;1.92;;;;;;;18.87;40.79;101195.66;4158459;28;20124;-64
2022/08/07 02:25:08;;;;;;;4.45;1.60;;;;;;;18.80;41.42;101190.38;4161632;28;20075;-64
2022/08/07 02:27:29;;;;;;;6.75;1.80;;;;;;;18.79;41.35;101180.75;4156713;28;20037;-64
2022/08/07 02:29:39;;;;;;;6.72;2.08;;;;;;;18.83;40.88;101187.72;4161230;28;20430;-64
2022/08/07 02:31:52;;;;;;;4.30;1.80;;;;;;;18.77;41.42;101184.28;4161873;28;20048;-64
2022/08/07 02:33:59;;;;;;;3.17;1.10;;;;;;;18.72;41.72;101186.94;4162367;28;20096;-64
2022/08/07 02:36:19;;;;;;;12.55;3.88;;;;;;;18.76;41.45;101183.41;4163975;28;20046;-64
2022/08/07 02:38:42;;;;;;;5.85;2.08;;;;;;;18.73;41.41;101182.53;4161420;28;20092;-64
2022/08/07 02:41:02;;;;;;;9.07;2.83;;;;;;;18.80;41.40;101179.84;4145497;28;20037;-64
2022/08/07 02:43:08;;;;;;;5.68;1.30;;;;;;;18.71;41.39;101173.78;4161335;28;20037;-64
2022/08/07 02:45:17;;;;;;;4.97;1.42;;;;;;;18.65;41.69;101172.94;4162145;28;20049;-64
2022/08/07 02:47:40;;;;;;;15.00;4.28;;;;;;;18.62;41.78;101174.75;4163920;28;20072;-64
2022/08/07 02:49:52;;;;;;;11.00;3.85;;;;;;;18.59;41.94;101172.13;4145370;28;20165;-64
2022/08/07 02:52:09;;;;;;;12.10;3.65;;;;;;;18.67;41.82;101178.19;4160724;28;20555;-64
2022/08/07 02:54:18;;;;;;;4.78;1.60;;;;;;;18.65;41.34;101166.81;4177959;28;20041;-64
2022/08/07 02:56:26;;;;;;;3.75;1.40;;;;;;;18.59;41.73;101169.50;4162920;28;20064;-64
2022/08/07 02:58:31;;;;;;;6.53;2.00;;;;;;;18.58;41.84;101170.38;4162004;28;20065;-64
2022/08/07 03:00:38;;;;;;;4.22;1.77;;;;;;;18.63;41.80;101165.94;4174592;28;20045;-64
2022/08/07 03:02:46;;;;;;;4.18;1.33;;;;;;;18.65;41.67;101165.03;4159000;28;20048;-64
2022/08/07 03:05:00;;;;;;;4.25;1.63;;;;;;;18.64;41.55;101165.06;4162583;28;20091;-63
2022/08/07 03:07:10;;;;;;;1.48;0.75;;;;;;;18.60;41.68;101166.84;4145507;28;20056;-63
2022/08/07 03:09:18;;;;;;;4.40;1.10;;;;;;;18.53;41.62;101169.53;4160417;28;20061;-64
2022/08/07 03:11:43;;;;;;;2.83;1.23;;;;;;;18.52;41.50;101162.53;4158360;28;20060;-64
2022/08/07 03:14:00;;;;;;;2.40;0.80;;;;;;;18.53;41.27;101161.63;4156656;28;20049;-64
2022/08/07 03:16:04;;;;;;;2.47;0.80;;;;;;;18.38;41.56;101158.22;4159993;28;20423;-65
2022/08/07 03:18:08;;;;;;;4.80;1.35;;;;;;;18.41;41.64;101155.59;4161970;28;20048;-64
2022/08/07 03:20:19;;;;;;;1.33;0.75;;;;;;;18.42;41.64;101161.72;4162053;28;20120;-64
2022/08/07 03:22:24;;;;;;;3.72;1.23;;;;;;;18.25;42.32;101161.81;4175832;28;20047;-64
2022/08/07 03:24:33;;;;;;;2.95;1.00;;;;;;;18.32;42.32;101163.53;4159235;28;20047;-64
2022/08/07 03:26:39;;;;;;;4.68;1.10;;;;;;;18.42;41.95;101159.94;4178069;28;20489;-64
2022/08/07 03:28:58;;;;;;;1.55;0.80;;;;;;;18.32;41.93;101171.41;4194204;28;20468;-64
2022/08/07 03:31:19;;;;;;;4.03;0.90;;;;;;;18.30;42.06;101158.28;4163158;28;20095;-63
2022/08/07 03:33:29;;;;;;;5.32;1.00;;;;;;;18.26;42.39;101169.69;4140134;28;21836;-64
2022/08/07 03:35:45;;;;;;;1.38;0.55;;;;;;;18.30;41.96;101170.56;4157278;28;20060;-64
2022/08/07 03:38:00;;;;;;;2.90;1.05;;;;;;;18.19;42.28;101169.75;4192213;28;20536;-64
2022/08/07 03:40:08;;;;;;;1.25;0.85;;;;;;;18.18;42.39;101165.38;4155760;28;20041;-64
2022/08/07 03:42:19;;;;;;;2.78;0.70;;;;;;;18.09;42.40;101167.19;4154079;28;20042;-63
2022/08/07 03:44:26;;;;;;;7.00;1.00;;;;;;;18.14;42.61;101165.38;4160985;28;20388;-63
2022/08/07 03:46:39;;;;;;;1.80;0.77;;;;;;;18.25;42.63;101160.06;4156516;28;20045;-64
2022/08/07 03:49:02;;;;;;;1.67;0.80;;;;;;;18.25;42.69;101165.34;4158267;28;20552;-64
2022/08/07 03:51:15;;;;;;;3.35;0.95;;;;;;;18.26;42.54;101171.47;4155781;28;20029;-64
2022/08/07 03:53:22;;;;;;;3.47;0.98;;;;;;;18.33;42.26;101177.59;4186459;28;20040;-64
2022/08/07 03:55:46;;;;;;;2.53;1.08;;;;;;;18.26;42.42;101176.72;4154304;28;20635;-64
2022/08/07 03:58:07;;;;;;;3.97;1.30;;;;;;;18.22;42.48;101173.22;4176677;28;20106;-64
2022/08/07 04:00:33;;;;;;;3.33;1.05;;;;;;;18.21;42.41;101178.50;4155076;28;20038;-64
2022/08/07 04:02:41;;;;;;;4.03;0.88;;;;;;;18.10;42.35;101176.81;4150210;28;20048;-64
2022/08/07 04:04:57;;;;;;;2.15;0.93;;;;;;;18.05;42.59;101168.09;4160306;28;20052;-64
2022/08/07 04:07:01;;;;;;;1.35;0.70;;;;;;;17.95;43.02;101172.50;4158784;28;20037;-64
2022/08/07 04:09:21;;;;;;;3.10;1.10;;;;;;;18.02;43.02;101175.09;4171418;28;20445;-64
2022/08/07 04:11:27;;;;;;;2.40;1.02;;;;;;;18.12;42.68;101180.31;4159030;28;20116;-63
2022/08/07 04:13:51;;;;;;;2.58;1.00;;;;;;;18.06;43.01;101180.38;4161010;28;20420;-64
2022/08/07 04:16:16;;;;;;;1.63;0.55;;;;;;;18.10;42.80;101175.94;4157071;28;20052;-63
2022/08/07 04:18:34;;;;;;;2.22;1.13;;;;;;;18.08;42.50;101188.25;4152519;28;20041;-64
2022/08/07 04:20:57;;;;;;;2.67;1.08;;;;;;;18.01;42.70;101181.25;4143126;28;20530;-64
2022/08/07 04:23:02;;;;;;;2.55;1.20;;;;;;;17.96;42.99;101181.28;4174837;28;20037;-64
2022/08/07 04:25:12;;;;;;;2.05;1.05;;;;;;;17.96;42.94;101189.19;4187604;28;20079;-64
2022/08/07 04:27:19;;;;;;;3.28;0.95;;;;;;;17.84;43.19;101191.81;4186258;28;20119;-64
2022/08/07 04:29:31;;;;;;;3.85;1.00;;;;;;;17.89;43.25;101184.81;4159828;28;20049;-64
2022/08/07 04:31:56;;;;;;;4.90;0.98;;;;;;;17.93;43.15;101190.06;4156178;28;20103;-64
2022/08/07 04:34:13;;;;;;;1.95;1.00;;;;;;;17.86;43.22;101190.03;4174897;28;20578;-62
2022/08/07 04:36:20;;;;;;;6.50;0.80;;;;;;;17.82;43.20;101191.81;4164411;28;20037;-62
2022/08/07 04:38:28;;;;;;;3.42;0.93;;;;;;;17.82;43.36;101193.59;4165871;28;20457;-62
2022/08/07 04:40:33;;;;;;;2.15;0.88;;;;;;;17.85;43.20;101194.44;4159522;28;20055;-62
2022/08/07 04:42:36;;;;;;;2.53;0.80;;;;;;;17.89;43.54;101190.91;4150911;28;20064;-62
2022/08/07 04:44:39;;;;;;;3.95;0.80;;;;;;;18.00;43.10;101190.91;4192440;28;20048;-63
2022/08/07 04:47:09;;;;;;;4.07;1.15;;;;;;;17.96;43.14;101192.69;4139430;28;20046;-62
2022/08/07 04:49:34;;;;;;;2.15;1.17;;;;;;;18.00;43.31;101196.16;4193092;28;20066;-62
2022/08/07 04:51:50;;;;;;;2.65;1.25;;;;;;;18.02;43.03;101202.31;4161581;28;20035;-62
2022/08/07 04:54:00;;;;;;;5.07;1.13;;;;;;;17.95;43.19;101201.44;4168506;28;20051;-61
2022/08/07 04:56:18;;;;;;;3.05;0.93;;;;;;;17.82;43.78;101206.75;4166011;28;20095;-61
2022/08/07 04:58:46;;;;;;;3.75;1.30;;;;;;;17.82;43.70;101202.34;4177801;28;20041;-60
2022/08/07 05:01:15;;;;;;;4.72;1.10;;;;;;;17.87;43.87;101212.84;4161334;28;20113;-60
2022/08/07 05:03:29;;;;;;;3.85;1.00;;;;;;;17.88;43.78;101215.47;4173438;28;20145;-60
2022/08/07 05:05:59;;;;;;;2.55;1.27;;;;;;;17.91;43.83;101219.88;4162956;28;20037;-60
2022/08/07 05:08:11;;;;;;;2.25;1.10;;;;;;;17.93;43.50;101221.63;4197981;28;20041;-60
2022/08/07 05:10:21;;;;;;;2.22;0.70;;;;;;;18.05;43.28;101207.53;4162473;28;20045;-60
2022/08/07 05:12:31;;;;;;;3.50;1.00;;;;;;;18.02;43.42;101199.69;4181341;28;20037;-60
2022/08/07 05:14:40;;;;;;;5.85;1.33;;;;;;;18.08;43.22;101207.53;4163253;28;20033;-62
2022/08/07 05:17:02;;;;;;;2.15;1.00;;;;;;;18.14;43.24;101204.84;4179772;28;20041;-62
2022/08/07 05:19:20;;;;;;;4.03;1.23;;;;;;;18.10;43.05;101215.41;4163452;28;20087;-61
2022/08/07 05:21:49;;;;;;;1.80;1.00;;;;;;;18.17;42.97;101208.38;4176351;28;20037;-62
2022/08/07 05:24:06;;;;;;;3.08;0.90;;;;;;;18.08;43.32;101211.94;4165191;28;20034;-61
2022/08/07 05:26:18;;;;;;;7.70;1.13;;;;;;;18.20;42.93;101213.63;4165946;28;20096;-61
2022/08/07 05:28:35;;;;;;;3.40;1.20;;;;;;;18.12;43.21;101221.53;4163368;28;20030;-61
2022/08/07 05:30:44;;;;;;;7.30;0.95;;;;;;;18.17;43.38;101232.06;4164991;28;20045;-62
2022/08/07 05:32:50;;;;;;;2.42;1.10;;;;;;;18.20;43.60;101234.69;4164584;28;20037;-62
2022/08/07 05:34:56;;;;;;;2.47;1.05;;;;;;;18.28;43.27;101230.22;4165105;28;20116;-62
2022/08/07 05:36:59;;;;;;;4.75;0.98;;;;;;;18.31;43.21;101231.09;4148534;28;20524;-61
2022/08/07 05:39:15;;;;;;;3.15;1.13;;;;;;;18.36;42.96;101231.06;4146983;28;20038;-62
2022/08/07 05:41:41;;;;;;;2.45;0.90;;;;;;;18.30;42.95;101231.13;4151851;28;20080;-61
2022/08/07 05:44:05;;;;;;;;;;;;;;;18.30;43.08;101233.75;4173401;28;20033;-61
2022/08/07 05:46:19;;;;;;;5.78;1.08;;;;;;;18.33;42.86;101236.34;4164911;28;19968;-62
2022/08/07 05:48:29;;;;;;;3.83;1.20;;;;;;;18.47;42.57;101239.78;4197398;28;20074;-62
2022/08/07 05:50:34;;;;;;;2.67;0.90;;;;;;;18.51;42.35;101239.78;4181099;28;20041;-61
2022/08/07 05:52:41;;;;;;;2.03;0.90;;;;;;;18.49;43.03;101248.53;4180787;28;20116;-62
2022/08/07 05:54:44;;;;;;;3.13;1.17;;;;;;;18.59;42.43;101245.88;4164632;28;20428;-61
2022/08/07 05:57:00;;;;;;;6.82;1.83;;;;;;;18.55;42.45;101249.41;4164768;28;20091;-61
2022/08/07 05:59:13;;;;;;;4.15;1.02;;;;;;;18.63;42.17;101252.84;4162909;28;20124;-62
2022/08/07 06:01:18;;;;;;;2.78;1.15;;;;;;;18.73;42.32;101246.63;4194416;28;20047;-61
2022/08/07 06:03:25;;;;;;;3.50;1.00;;;;;;;18.74;42.30;101240.47;4164152;28;20515;-62
2022/08/07 06:05:50;;;;;;;3.95;1.40;;;;;;;18.70;41.70;101241.38;4177753;28;20043;-62
2022/08/07 06:07:59;;;;;;;1.73;0.77;;;;;;;18.75;41.80;101246.63;4178439;28;20131;-62
2022/08/07 06:10:23;;;;;;;2.13;0.90;;;;;;;18.75;41.35;101244.88;4162767;28;20410;-62
2022/08/07 06:12:26;;;;;;;2.22;1.17;;;;;;;18.82;41.79;101251.84;4163763;28;20043;-62
2022/08/07 06:14:36;;;;;;;10.02;1.77;;;;;;;18.83;42.03;101235.13;4163284;28;20060;-62
2022/08/07 06:16:40;;;;;;;3.15;1.20;;;;;;;18.96;41.96;101235.94;4160167;28;20507;-62
2022/08/07 06:18:45;;;;;;;4.60;1.20;;;;;;;19.09;41.28;101238.50;4164632;28;20061;-62
2022/08/07 06:20:55;;;;;;;4.65;1.30;;;;;;;19.21;41.08;101237.50;4191186;28;20067;-62
2022/08/07 06:23:18;;;;;;;2.87;1.20;;;;;;;19.24;40.77;101243.63;4197417;28;20088;-62
2022/08/07 06:25:41;;;;;;;1.73;0.90;;;;;;;19.24;40.45;101245.38;4162865;28;20042;-61
2022/08/07 06:28:03;;;;;;;1.67;0.88;;;;;;;19.24;40.69;101242.75;4162854;28;20049;-61
2022/08/07 06:30:08;;;;;;;2.65;1.10;;;;;;;19.33;40.65;101240.03;4165135;28;20132;-62
2022/08/07 06:32:31;;;;;;;3.33;1.10;;;;;;;19.38;40.31;101253.16;4163326;28;20121;-62
2022/08/07 06:34:34;;;;;;;2.50;0.98;;;;;;;19.34;40.56;101239.16;4164006;28;20049;-62
2022/08/07 06:36:43;;;;;;;2.35;0.85;;;;;;;19.46;39.69;101246.91;4141597;28;20037;-63
2022/08/07 06:38:49;;;;;;;3.85;1.02;;;;;;;19.53;39.98;101237.19;4187659;28;20041;-62
2022/08/07 06:41:18;;;;;;;1.83;0.93;;;;;;;19.58;39.99;101237.13;4164073;28;20132;-62
2022/08/07 06:43:44;;;;;;;3.13;0.80;;;;;;;19.58;40.13;101238.03;4159366;28;20396;-61
2022/08/07 06:45:52;;;;;;;2.15;1.02;;;;;;;19.66;39.67;101238.81;4163402;28;20065;-62
2022/08/07 06:48:05;;;;;;;2.03;1.00;;;;;;;19.68;39.31;101242.31;4161859;28;20442;-62
2022/08/07 06:50:14;;;;;;;1.75;1.05;;;;;;;19.77;39.46;101238.69;4165636;28;20474;-62
2022/08/07 06:52:24;;;;;;;1.73;0.90;;;;;;;19.77;39.59;101236.06;4169538;28;20029;-62
2022/08/07 06:54:39;;;;;;;1.92;0.90;;;;;;;19.82;39.84;101230.75;4166338;28;20046;-62
2022/08/07 06:57:03;;;;;;;2.35;0.90;;;;;;;20.02;39.64;101234.03;4166999;28;20071;-62
2022/08/07 06:59:13;;;;;;;3.42;1.45;;;;;;;20.09;38.92;101234.81;4168302;28;20057;-61
2022/08/07 07:01:41;;;;;;;1.08;0.77;;;;;;;20.09;38.99;101234.81;4166337;28;20045;-62
2022/08/07 07:03:55;;;;;;;2.47;1.40;;;;;;;20.11;39.04;101233.03;4170805;28;20072;-62
2022/08/07 07:06:18;;;;;;;2.15;0.80;;;;;;;20.10;38.93;101241.84;4169442;28;20418;-62
2022/08/07 07:08:31;;;;;;;1.90;1.25;;;;;;;20.22;38.86;101246.09;4168980;28;20570;-62
2022/08/07 07:10:35;;;;;;;2.60;0.82;;;;;;;20.30;38.45;101243.38;4167173;28;20128;-62
2022/08/07 07:12:42;;;;;;;2.20;1.08;;;;;;;20.26;39.03;101231.09;4166340;28;20045;-61
2022/08/07 07:15:00;;;;;;;3.00;0.80;;;;;;;20.33;39.11;101233.63;4166583;28;20040;-61
2022/08/07 07:17:14;;;;;;;2.38;0.80;;;;;;;20.42;38.74;101235.25;4166949;28;20044;-60
2022/08/07 07:19:25;;;;;;;1.92;0.90;;;;;;;20.45;38.53;101243.13;4171710;28;20033;-62
2022/08/07 07:21:51;;;;;;;0.93;0.70;;;;;;;20.55;38.62;101236.81;4172140;28;20033;-61
2022/08/07 07:24:16;;;;;;;3.55;1.05;;;;;;;20.67;38.05;101237.56;4166460;28;20045;-62
2022/08/07 07:26:22;;;;;;;2.17;1.02;;;;;;;20.64;38.34;101237.59;4168159;28;20049;-62
2022/08/07 07:28:45;;;;;;;1.98;0.88;;;;;;;20.71;37.98;101232.22;4165524;28;20475;-62
2022/08/07 07:31:12;;;;;;;4.85;1.10;;;;;;;20.75;38.24;101231.28;4161318;28;20037;-61
2022/08/07 07:33:25;;;;;;;2.47;0.95;;;;;;;20.78;38.35;101230.34;4142202;28;20073;-62
2022/08/07 07:35:33;;;;;;;3.00;1.30;;;;;;;20.83;38.41;101230.28;4189621;28;20508;-62
2022/08/07 07:37:59;;;;;;;4.97;1.23;;;;;;;20.86;38.33;101223.16;4159989;28;20049;-61
2022/08/07 07:40:12;;;;;;;1.75;1.02;;;;;;;21.09;37.60;101219.28;4163073;28;20407;-63
2022/08/07 07:42:18;;;;;;;2.20;0.85;;;;;;;21.07;37.53;101221.06;4163762;28;20052;-63
2022/08/07 07:44:24;;;;;;;2.45;0.77;;;;;;;21.16;37.80;101225.31;4164266;28;20091;-62
2022/08/07 07:46:30;;;;;;;2.53;0.90;;;;;;;21.20;37.80;101224.34;4178609;28;20098;-61
2022/08/07 07:48:55;;;;;;;2.45;0.90;;;;;;;21.37;37.62;101224.06;4166302;28;20032;-62
2022/08/07 07:51:12;;;;;;;5.10;1.20;;;;;;;21.31;37.83;101229.47;4165028;28;20120;-62
2022/08/07 07:53:23;;;;;;;3.40;1.23;;;;;;;21.28;37.94;101225.09;4166502;28;20041;-61
2022/08/07 07:55:31;;;;;;;2.40;0.90;;;;;;;21.33;38.00;101219.72;4168504;28;20068;-62
2022/08/07 07:57:49;;;;;;;4.00;1.20;;;;;;;21.44;37.44;101220.41;4162384;28;20048;-62
2022/08/07 08:00:02;;;;;;;6.28;1.13;;;;;;;21.55;37.43;101218.47;4164298;28;20495;-62
2022/08/07 08:02:16;;;;;;;3.95;1.00;;;;;;;21.50;37.75;101217.63;4184878;28;20152;-62
2022/08/07 08:04:37;;;;;;;2.70;1.10;;;;;;;21.58;37.68;101218.41;4169387;28;20041;-62
2022/08/07 08:06:45;;;;;;;2.72;1.27;;;;;;;21.70;37.27;101221.69;4167416;28;20060;-62
2022/08/07 08:08:56;;;;;;;2.72;0.68;;;;;;;21.64;37.33;101213.88;4166244;28;20041;-61
2022/08/07 08:11:06;;;;;;;3.00;1.02;;;;;;;21.60;37.74;101213.94;4172708;28;20047;-61
2022/08/07 08:13:11;;;;;;;1.83;1.10;;;;;;;21.75;37.57;101214.53;4171664;28;20033;-62
2022/08/07 08:15:17;;;;;;;2.97;1.20;;;;;;;21.79;37.57;101219.75;4167585;28;20406;-61
2022/08/07 08:17:26;;;;;;;4.38;1.08;;;;;;;21.81;38.07;101213.56;4160786;28;20037;-62
2022/08/07 08:19:52;;;;;;;4.60;1.55;;;;;;;21.85;37.56;101205.50;4161541;28;20563;-61
2022/08/07 08:27:31;;;;;;;3.15;1.48;;;;;;;22.00;37.65;101209.59;4196872;28;20036;-63
2022/08/07 08:29:40;;;;;;;2.45;1.35;;;;;;;22.00;37.85;101199.00;4164479;28;20068;-62
2022/08/07 08:32:00;;;;;;;1.55;1.35;;;;;;;22.03;38.12;101206.03;4170621;28;20048;-63
2022/08/07 08:34:22;;;;;;;3.38;1.40;;;;;;;22.25;37.66;101204.66;4168320;28;20029;-63
2022/08/07 08:36:33;;;;;;;4.78;1.50;;;;;;;22.27;37.72;101197.53;4165072;28;20517;-63
2022/08/07 08:38:40;;;;;;;2.30;1.00;;;;;;;22.25;37.88;101206.41;4145689;28;20100;-62
2022/08/07 08:40:51;;;;;;;1.85;1.38;;;;;;;22.38;37.07;101199.09;4168277;28;20513;-63
2022/08/07 08:43:03;;;;;;;2.88;1.13;;;;;;;22.34;37.50;101203.63;4168416;28;20503;-62
2022/08/07 08:45:18;;;;;;;4.75;1.35;;;;;;;22.57;37.20;101199.53;4167992;28;20561;-62
2022/08/07 08:47:27;;;;;;;2.65;1.40;;;;;;;22.61;37.24;101193.25;4164765;28;20069;-63
2022/08/07 08:49:36;;;;;;;1.83;1.15;;;;;;;22.60;37.34;101194.16;4170163;28;20044;-63
2022/08/07 08:52:05;;;;;;;1.20;1.08;;;;;;;22.89;36.88;101193.44;4167314;28;20098;-63
2022/08/07 08:54:24;;;;;;;2.53;1.20;;;;;;;23.00;36.56;101194.03;4173508;28;20444;-63
2022/08/07 08:56:32;;;;;;;3.17;1.27;;;;;;;23.06;36.19;101192.16;4167503;28;20526;-63
2022/08/07 08:58:46;;;;;;;2.20;1.30;;;;;;;23.00;36.58;101187.88;4170050;28;20041;-63
2022/08/07 09:00:56;;;;;;;3.85;1.10;;;;;;;22.92;37.12;101193.34;4200360;28;20064;-63
2022/08/07 09:03:11;;;;;;;2.38;1.30;;;;;;;22.90;36.97;101192.53;4169740;28;20562;-62
2022/08/07 09:05:33;;;;;;;5.45;1.35;;;;;;;23.11;36.66;101191.13;4168588;28;20041;-62
2022/08/07 09:07:46;;;;;;;2.83;1.50;;;;;;;23.24;36.32;101186.38;4169386;28;20045;-63
2022/08/07 09:10:06;;;;;;;3.10;1.00;;;;;;;23.38;35.83;101180.72;4170416;28;20037;-62
2022/08/07 09:12:17;;;;;;;3.10;1.20;;;;;;;23.14;36.35;101184.88;4197655;28;20044;-63
2022/08/07 09:14:44;;;;;;;7.22;1.17;;;;;;;23.24;36.52;101181.06;4168752;28;20043;-64
2022/08/07 09:17:00;;;;;;;2.00;1.20;;;;;;;23.33;36.45;101180.84;4170363;28;20132;-64
2022/08/07 09:19:21;;;;;;;3.28;1.10;;;;;;;23.61;35.46;101185.38;4166687;28;20053;-64
2022/08/07 09:21:52;;;;;;;2.15;1.10;;;;;;;23.46;35.68;101180.47;4177038;28;20557;-63
2022/08/07 09:24:26;;;;;;;1.48;0.90;;;;;;;23.31;36.40;101172.03;4167593;28;20076;-63
2022/08/07 09:26:45;;;;;;;1.67;0.90;;;;;;;23.40;36.66;101170.03;4161685;28;20049;-63
2022/08/07 09:28:58;;;;;;;1.25;0.90;;;;;;;23.56;36.31;101171.34;4166657;28;20053;-64
2022/08/07 09:31:36;;;;;;;3.08;1.20;;;;;;;23.98;35.26;101167.50;4167093;28;20119;-64
2022/08/07 09:34:14;;;;;;;1.25;1.00;;;;;;;23.90;35.88;101162.41;4167269;28;20037;-64
2022/08/07 09:36:24;;;;;;;2.45;0.80;;;;;;;23.91;35.71;101161.50;4166935;28;20449;-63
2022/08/07 09:38:38;;;;;;;3.28;1.23;;;;;;;23.96;35.97;101161.38;4168845;28;20053;-63
2022/08/07 09:41:02;;;;;;;3.90;1.48;;;;;;;24.16;35.52;101155.44;4162256;28;20046;-63
2022/08/07 09:43:18;;;;;;;2.70;1.05;;;;;;;24.19;35.83;101161.50;4162295;28;20132;-63
2022/08/07 09:45:55;;;;;;;1.52;0.93;;;;;;;24.32;35.08;101159.34;4160341;28;20507;-62
2022/08/07 09:48:32;;;;;;;3.35;0.90;;;;;;;24.43;35.22;101152.81;4162759;28;20102;-63
2022/08/07 09:51:05;;;;;;;2.72;0.95;;;;;;;24.58;34.37;101147.84;4161841;28;20124;-62
2022/08/07 09:53:37;;;;;;;1.63;1.08;;;;;;;24.63;34.53;101146.88;4149202;28;20038;-62
2022/08/07 09:56:13;;;;;;;3.65;0.90;;;;;;;24.63;35.20;101145.06;4149590;28;20041;-63
2022/08/07 09:58:43;;;;;;;1.38;1.00;;;;;;;24.76;34.47;101131.38;4164892;28;20041;-63
2022/08/07 10:01:04;;;;;;;2.80;1.23;;;;;;;24.87;33.78;101132.75;4182658;28;20124;-63
2022/08/07 10:03:35;;;;;;;1.33;0.95;;;;;;;24.64;34.47;101122.91;4157689;28;20045;-63
2022/08/07 10:06:26;;;;;;;3.33;1.10;;;;;;;24.73;34.63;101122.56;4165904;28;20042;-63
2022/08/07 10:08:44;;;;;;;3.85;1.00;;;;;;;24.70;34.81;101122.69;4165762;28;20107;-64
2022/08/07 10:11:01;;;;;;;1.33;0.80;;;;;;;24.78;34.77;101117.13;4164919;28;20065;-63
2022/08/07 10:13:46;;;;;;;3.28;1.10;;;;;;;24.92;34.32;101112.16;4164012;28;20041;-63
2022/08/07 10:16:13;;;;;;;1.23;0.80;;;;;;;24.98;34.67;101108.41;4165639;28;20037;-63
2022/08/07 10:18:50;;;;;;;2.42;1.02;;;;;;;25.07;34.20;101108.09;4164384;28;20470;-63
2022/08/07 10:21:10;;;;;;;3.20;1.20;;;;;;;25.38;33.90;101103.50;4165400;28;20140;-63
2022/08/07 10:23:49;;;;;;;4.50;1.60;;;;;;;25.47;33.37;101105.78;4164284;28;20110;-64
2022/08/07 10:26:28;;;;;;;2.00;0.90;;;;;;;25.43;33.69;101094.38;4160749;28;20141;-63
2022/08/07 10:28:50;;;;;;;2.67;1.10;;;;;;;25.60;33.57;101096.41;4165344;28;20519;-64
2022/08/07 10:31:10;;;;;;;1.58;1.10;;;;;;;25.59;32.69;101093.81;4164347;28;20132;-63